Time;durP1;ratioP1;P1;durP2;ratioP2;P2;SDS_P1;SDS_P2;PMS_P1;PMS_P2;Temp;Humidity;BMP_temperature;BMP_pressure;BME280_temperature;BME280_humidity;BME280_pressure;Samples;Min_cycle;Max_cycle;Signal;HPM_P1;HPM_P2
2022/02/22 00:02:22;;;;;;;22.25;21.15;;;9.90;68.10;;;;;;5025332;28;20388;-80
2022/02/22 00:04:48;;;;;;;22.08;21.08;;;9.90;68.00;;;;;;5013234;28;20030;-81
2022/02/22 00:07:14;;;;;;;21.95;20.95;;;9.90;68.00;;;;;;5010569;28;20038;-80
2022/02/22 00:09:40;;;;;;;21.90;20.90;;;9.90;68.00;;;;;;5012160;28;20394;-80
2022/02/22 00:12:07;;;;;;;22.13;21.13;;;9.90;68.30;;;;;;5026978;28;20392;-80
2022/02/22 00:14:33;;;;;;;21.05;20.05;;;9.90;68.10;;;;;;5011753;28;20386;-81
2022/02/22 00:17:00;;;;;;;21.75;20.73;;;9.90;68.00;;;;;;5010431;28;20054;-81
2022/02/22 00:19:26;;;;;;;22.25;21.23;;;10.00;68.10;;;;;;5011529;28;20041;-80
2022/02/22 00:21:52;;;;;;;21.75;20.75;;;9.90;68.00;;;;;;5012330;28;20037;-80
2022/02/22 00:24:19;;;;;;;21.83;20.83;;;10.00;68.20;;;;;;5009844;28;20061;-81
2022/02/22 00:26:45;;;;;;;22.38;21.27;;;9.90;68.10;;;;;;4996063;28;20037;-81
2022/02/22 00:29:11;;;;;;;22.88;21.48;;;9.90;68.20;;;;;;4993226;28;20034;-80
2022/02/22 00:31:37;;;;;;;22.15;21.05;;;9.90;68.30;;;;;;5025812;28;20045;-80
2022/02/22 00:34:04;;;;;;;22.33;21.33;;;9.90;68.30;;;;;;4995341;28;20033;-81
2022/02/22 00:36:30;;;;;;;21.60;20.60;;;9.90;68.30;;;;;;5009984;28;20505;-80
2022/02/22 00:38:56;;;;;;;23.52;22.17;;;9.90;68.40;;;;;;5043279;28;20041;-80
2022/02/22 00:41:23;;;;;;;21.33;20.33;;;9.80;68.40;;;;;;5007762;28;20034;-80
2022/02/22 00:43:49;;;;;;;23.33;21.42;;;9.80;68.40;;;;;;5012334;28;20052;-80
2022/02/22 00:46:15;;;;;;;21.55;20.55;;;9.80;68.40;;;;;;5023420;28;20038;-80
2022/02/22 00:48:41;;;;;;;22.50;21.48;;;9.90;68.50;;;;;;5017564;28;20044;-80
2022/02/22 00:51:07;;;;;;;22.40;21.40;;;9.80;68.40;;;;;;5010968;28;20033;-80
2022/02/22 00:53:33;;;;;;;23.13;21.70;;;9.80;68.40;;;;;;5011783;28;20041;-80
2022/02/22 00:55:59;;;;;;;23.25;22.15;;;9.80;68.40;;;;;;5011718;28;20033;-80
2022/02/22 00:58:26;;;;;;;23.02;21.92;;;9.90;68.50;;;;;;5007369;28;20057;-81
2022/02/22 01:00:52;;;;;;;22.63;21.52;;;9.90;68.50;;;;;;5012697;28;20467;-80
2022/02/22 01:03:18;;;;;;;24.25;22.95;;;9.90;68.50;;;;;;5013156;28;20038;-80
2022/02/22 01:05:44;;;;;;;23.20;22.13;;;9.90;68.40;;;;;;5011878;28;20041;-80
2022/02/22 01:08:10;;;;;;;22.90;21.83;;;9.90;68.40;;;;;;4992013;28;20149;-80
2022/02/22 01:10:36;;;;;;;22.67;21.65;;;9.90;68.50;;;;;;5011995;28;20391;-80
2022/02/22 01:13:02;;;;;;;23.08;21.98;;;9.90;68.50;;;;;;5043089;28;20418;-81
2022/02/22 01:15:28;;;;;;;22.88;21.80;;;9.90;68.50;;;;;;4993943;28;20034;-80
2022/02/22 01:17:55;;;;;;;25.17;23.50;;;10.00;68.60;;;;;;5034936;28;20041;-80
2022/02/22 01:20:21;;;;;;;23.15;21.90;;;9.90;68.50;;;;;;5005515;28;20042;-80
2022/02/22 01:22:51;;;;;;;23.95;22.27;;;10.00;68.60;;;;;;5009961;28;20053;-80
2022/02/22 01:25:17;;;;;;;23.65;22.48;;;10.00;68.60;;;;;;5011433;28;20033;-81
2022/02/22 01:27:43;;;;;;;23.77;22.67;;;10.00;68.60;;;;;;5009548;28;20478;-80
2022/02/22 01:30:10;;;;;;;22.85;21.80;;;10.00;68.50;;;;;;5012470;28;20052;-81
2022/02/22 01:32:36;;;;;;;23.65;22.55;;;10.00;68.50;;;;;;5011261;28;20478;-80
2022/02/22 01:35:03;;;;;;;22.98;21.88;;;10.00;68.50;;;;;;5008663;28;20462;-81
2022/02/22 01:37:29;;;;;;;23.50;22.40;;;10.00;68.50;;;;;;5024800;28;20045;-80
2022/02/22 01:39:55;;;;;;;23.55;22.45;;;10.10;68.50;;;;;;5041784;28;20037;-80
2022/02/22 01:42:21;;;;;;;24.27;22.88;;;10.10;68.50;;;;;;4985431;28;20049;-80
2022/02/22 01:44:48;;;;;;;23.15;22.05;;;10.10;68.50;;;;;;5011951;28;20034;-80
2022/02/22 01:47:16;;;;;;;24.48;23.23;;;10.10;68.50;;;;;;5014751;28;20042;-80
2022/02/22 01:49:43;;;;;;;23.25;22.15;;;10.10;68.50;;;;;;5007494;28;20037;-80
2022/02/22 01:52:09;;;;;;;23.05;21.95;;;10.10;68.50;;;;;;5017087;28;20038;-80
2022/02/22 01:54:35;;;;;;;23.50;22.40;;;10.20;68.60;;;;;;5011723;28;20041;-80
2022/02/22 01:57:02;;;;;;;23.63;22.42;;;10.20;68.60;;;;;;4992827;28;20507;-80
2022/02/22 01:59:28;;;;;;;22.98;21.77;;;10.20;68.60;;;;;;5024865;28;20046;-80
2022/02/22 02:01:54;;;;;;;22.98;21.88;;;10.20;68.60;;;;;;5004728;28;20034;-80
2022/02/22 02:04:20;;;;;;;23.98;22.88;;;10.20;68.70;;;;;;5043452;28;20258;-80
2022/02/22 02:06:46;;;;;;;22.30;21.27;;;10.20;68.70;;;;;;5041975;28;20034;-80
2022/02/22 02:09:13;;;;;;;23.73;22.63;;;10.20;68.70;;;;;;5008619;28;20038;-81
2022/02/22 02:11:44;;;;;;;23.20;22.10;;;10.10;69.40;;;;;;5042517;28;20037;-81
2022/02/22 02:14:10;;;;;;;22.98;21.88;;;10.10;68.70;;;;;;5042005;28;20038;-81
2022/02/22 02:16:36;;;;;;;23.55;22.45;;;10.10;68.80;;;;;;4999029;28;20029;-80
2022/02/22 02:19:03;;;;;;;24.00;22.77;;;10.10;68.80;;;;;;5041531;28;20038;-80
2022/02/22 02:21:29;;;;;;;22.30;21.30;;;10.10;68.90;;;;;;5026884;28;20034;-80
2022/02/22 02:24:05;;;;;;;22.70;21.63;;;10.00;68.90;;;;;;4991052;28;20050;-80
2022/02/22 02:26:31;;;;;;;22.70;21.60;;;10.00;69.00;;;;;;5011286;28;20503;-80
2022/02/22 02:28:57;;;;;;;22.75;21.65;;;10.00;69.10;;;;;;5010328;28;20045;-80
2022/02/22 02:31:24;;;;;;;23.00;21.95;;;9.90;69.20;;;;;;5010010;28;20368;-80
2022/02/22 02:33:50;;;;;;;23.27;21.77;;;9.90;69.20;;;;;;5025845;28;20045;-80
2022/02/22 02:36:16;;;;;;;22.65;21.55;;;9.90;69.30;;;;;;5012175;28;20061;-81
2022/02/22 02:38:42;;;;;;;24.00;22.80;;;9.90;69.30;;;;;;5023290;28;20046;-81
2022/02/22 02:41:08;;;;;;;23.25;22.13;;;9.90;69.30;;;;;;5042447;28;20025;-80
2022/02/22 02:43:34;;;;;;;22.08;20.98;;;9.90;69.30;;;;;;5010479;28;20037;-80
2022/02/22 02:46:00;;;;;;;21.70;20.70;;;9.90;69.30;;;;;;5017910;28;20398;-81
2022/02/22 02:48:26;;;;;;;21.85;20.85;;;9.90;69.30;;;;;;5000558;28;20042;-81
2022/02/22 02:50:52;;;;;;;22.42;21.35;;;9.90;69.40;;;;;;5012896;28;20509;-80
2022/02/22 02:53:18;;;;;;;23.50;22.25;;;9.90;69.30;;;;;;4993342;28;20038;-80
2022/02/22 02:55:44;;;;;;;24.38;23.00;;;9.90;69.30;;;;;;5010857;28;20022;-81
2022/02/22 02:58:11;;;;;;;23.83;22.42;;;9.90;69.30;;;;;;5010120;28;20037;-81
2022/02/22 03:00:37;;;;;;;23.80;22.70;;;9.90;69.40;;;;;;5016302;28;20037;-80
2022/02/22 03:03:03;;;;;;;23.08;21.98;;;9.90;69.40;;;;;;5013439;28;20033;-81
2022/02/22 03:05:29;;;;;;;22.75;21.70;;;10.00;69.50;;;;;;5007991;28;20505;-80
2022/02/22 03:07:58;;;;;;;24.13;22.77;;;10.00;69.40;;;;;;4999359;28;20037;-81
2022/02/22 03:10:26;;;;;;;24.25;22.85;;;10.00;69.40;;;;;;4992621;28;20108;-81
2022/02/22 03:12:52;;;;;;;23.95;22.63;;;10.00;69.40;;;;;;4995297;28;20025;-81
2022/02/22 03:15:18;;;;;;;22.58;21.55;;;10.00;69.40;;;;;;5026743;28;20040;-81
2022/02/22 03:17:44;;;;;;;21.83;20.83;;;10.00;69.50;;;;;;5005696;28;20054;-81
2022/02/22 03:20:11;;;;;;;22.25;21.25;;;10.00;69.50;;;;;;4990997;28;20026;-81
2022/02/22 03:22:43;;;;;;;23.92;22.75;;;10.00;69.40;;;;;;5004413;28;20494;-81
2022/02/22 03:25:09;;;;;;;21.85;20.85;;;10.00;69.50;;;;;;4997363;28;20058;-81
2022/02/22 03:27:35;;;;;;;23.17;22.05;;;10.00;69.50;;;;;;5012086;28;20041;-81
2022/02/22 03:30:02;;;;;;;22.08;21.08;;;10.00;69.50;;;;;;5011855;28;20041;-81
2022/02/22 03:32:28;;;;;;;22.65;21.55;;;10.00;69.50;;;;;;5007206;28;20379;-81
2022/02/22 03:34:54;;;;;;;21.48;20.48;;;10.00;69.50;;;;;;5021935;28;20053;-81
2022/02/22 03:37:20;;;;;;;23.40;22.10;;;10.00;69.50;;;;;;5006648;28;20369;-81
2022/02/22 03:39:46;;;;;;;22.90;21.83;;;10.00;69.50;;;;;;5011494;28;20033;-80
2022/02/22 03:42:12;;;;;;;23.75;22.30;;;10.00;69.50;;;;;;5012520;28;20391;-80
2022/02/22 03:44:38;;;;;;;21.20;20.20;;;10.00;69.50;;;;;;5045366;28;20041;-80
2022/02/22 03:47:04;;;;;;;23.00;21.90;;;10.00;69.60;;;;;;5024985;28;20026;-80
2022/02/22 03:49:30;;;;;;;23.67;21.92;;;10.10;69.70;;;;;;4994741;28;20026;-85
2022/02/22 03:51:56;;;;;;;22.20;21.20;;;10.10;69.70;;;;;;5010591;28;20513;-83
2022/02/22 03:54:23;;;;;;;21.75;20.75;;;10.10;69.70;;;;;;5014097;28;20022;-81
2022/02/22 03:56:49;;;;;;;22.88;21.83;;;10.10;69.70;;;;;;5026280;28;20034;-83
2022/02/22 03:59:15;;;;;;;22.45;21.35;;;10.10;69.70;;;;;;5012700;28;20044;-83
2022/02/22 04:01:41;;;;;;;22.27;20.95;;;10.10;69.80;;;;;;5044004;28;20034;-83
2022/02/22 04:04:07;;;;;;;21.80;20.65;;;10.10;69.80;;;;;;4996217;28;20046;-82
2022/02/22 04:06:33;;;;;;;21.27;20.27;;;10.00;69.80;;;;;;5008279;28;20102;-82
2022/02/22 04:08:59;;;;;;;23.13;21.60;;;10.00;69.90;;;;;;5011960;28;20030;-83
2022/02/22 04:11:25;;;;;;;21.67;20.67;;;10.00;69.90;;;;;;5044475;28;20045;-82
2022/02/22 04:13:51;;;;;;;21.60;20.58;;;10.10;70.00;;;;;;5013748;28;20519;-82
2022/02/22 04:16:17;;;;;;;21.88;20.88;;;10.10;70.00;;;;;;5003087;28;20038;-82
2022/02/22 04:18:44;;;;;;;23.90;22.23;;;10.10;70.00;;;;;;5023005;28;20053;-83
2022/02/22 04:21:10;;;;;;;22.40;21.33;;;10.10;70.00;;;;;;5010423;28;20027;-82
2022/02/22 04:23:36;;;;;;;21.55;20.55;;;10.10;70.00;;;;;;5010534;28;20061;-82
2022/02/22 04:26:02;;;;;;;22.48;20.58;;;10.10;70.00;;;;;;5044594;28;20034;-82
2022/02/22 04:28:28;;;;;;;21.83;20.73;;;10.10;70.00;;;;;;5008868;28;20038;-82
2022/02/22 04:30:54;;;;;;;21.42;20.33;;;10.10;70.00;;;;;;4995136;28;20560;-82
2022/02/22 04:33:20;;;;;;;21.80;20.80;;;10.10;70.00;;;;;;5012993;28;20049;-82
2022/02/22 04:35:46;;;;;;;21.83;20.73;;;10.20;70.10;;;;;;5007476;28;20034;-82
2022/02/22 04:38:12;;;;;;;22.00;20.55;;;10.20;70.10;;;;;;5043695;28;20126;-81
2022/02/22 04:40:38;;;;;;;21.10;20.10;;;10.20;70.10;;;;;;5007179;28;20033;-82
2022/02/22 04:43:05;;;;;;;21.02;19.83;;;10.20;70.10;;;;;;5011890;28;20037;-81
2022/02/22 04:45:31;;;;;;;20.58;19.60;;;10.20;70.10;;;;;;5020236;28;20045;-81
2022/02/22 04:47:57;;;;;;;21.33;20.33;;;10.20;70.10;;;;;;5009989;28;20384;-81
2022/02/22 04:50:23;;;;;;;21.38;20.38;;;10.20;70.10;;;;;;5043383;28;20462;-81
2022/02/22 04:52:49;;;;;;;21.20;20.20;;;10.20;70.20;;;;;;4990621;28;20491;-81
2022/02/22 04:55:15;;;;;;;20.13;19.23;;;10.20;70.20;;;;;;5010392;28;20038;-81
2022/02/22 04:57:41;;;;;;;20.55;19.58;;;10.20;70.20;;;;;;5044357;28;20475;-81
2022/02/22 05:00:10;;;;;;;21.27;20.27;;;10.20;70.30;;;;;;5012149;28;20032;-81
2022/02/22 05:02:36;;;;;;;22.20;20.95;;;10.20;70.30;;;;;;5023219;28;20050;-81
2022/02/22 05:05:02;;;;;;;20.42;19.52;;;10.20;70.30;;;;;;5026023;28;20037;-81
2022/02/22 05:07:28;;;;;;;21.30;20.30;;;10.20;70.30;;;;;;5009976;28;20046;-81
2022/02/22 05:09:54;;;;;;;21.98;20.95;;;10.30;70.40;;;;;;5043349;28;20033;-81
2022/02/22 05:12:21;;;;;;;21.60;20.58;;;10.30;70.50;;;;;;5027603;28;20053;-81
2022/02/22 05:14:47;;;;;;;20.52;19.63;;;10.30;70.40;;;;;;5012005;28;20041;-81
2022/02/22 05:17:13;;;;;;;21.38;20.38;;;10.30;70.50;;;;;;5010265;28;20029;-81
2022/02/22 05:19:39;;;;;;;20.90;19.90;;;10.30;70.50;;;;;;5007850;28;20053;-81
2022/02/22 05:22:05;;;;;;;21.50;20.50;;;10.30;70.50;;;;;;5040313;28;20038;-81
2022/02/22 05:24:31;;;;;;;20.77;19.80;;;10.30;70.60;;;;;;5011164;28;20025;-81
2022/02/22 05:26:57;;;;;;;20.30;19.40;;;10.30;70.60;;;;;;5006633;28;20476;-81
2022/02/22 05:29:23;;;;;;;21.05;20.05;;;10.30;70.60;;;;;;5038015;28;20034;-81
2022/02/22 05:31:49;;;;;;;21.35;20.35;;;10.30;70.60;;;;;;5040970;28;20064;-80
2022/02/22 05:34:15;;;;;;;20.73;19.77;;;10.30;70.60;;;;;;4992835;28;20056;-81
2022/02/22 05:36:41;;;;;;;20.65;19.65;;;10.30;70.60;;;;;;5010655;28;20041;-81
2022/02/22 05:39:08;;;;;;;21.27;20.27;;;10.30;70.70;;;;;;5007319;28;20045;-81
2022/02/22 05:41:34;;;;;;;21.38;20.17;;;10.30;70.70;;;;;;5002128;28;20053;-81
2022/02/22 05:44:00;;;;;;;19.60;18.70;;;10.30;70.80;;;;;;5007921;28;20699;-81
2022/02/22 05:46:26;;;;;;;20.52;19.52;;;10.30;70.80;;;;;;5041834;28;20503;-81
2022/02/22 05:48:52;;;;;;;20.58;19.55;;;10.30;70.90;;;;;;5042984;28;20041;-80
2022/02/22 05:51:18;;;;;;;20.20;19.27;;;10.30;70.90;;;;;;4993449;28;20571;-81
2022/02/22 05:53:44;;;;;;;20.25;19.33;;;10.30;71.00;;;;;;5009295;28;20045;-81
2022/02/22 05:56:10;;;;;;;21.27;20.20;;;10.30;71.00;;;;;;5011316;28;20026;-81
2022/02/22 05:58:36;;;;;;;19.73;18.83;;;10.30;71.00;;;;;;5043169;28;20041;-81
2022/02/22 06:01:02;;;;;;;21.40;20.30;;;10.30;71.00;;;;;;5010540;28;20026;-81
2022/02/22 06:03:29;;;;;;;19.65;18.75;;;10.40;71.10;;;;;;5010836;28;20030;-81
2022/02/22 06:05:55;;;;;;;19.90;19.00;;;10.40;71.20;;;;;;5010917;28;20034;-81
2022/02/22 06:08:21;;;;;;;23.33;20.70;;;10.40;71.20;;;;;;5024783;28;20038;-81
2022/02/22 06:10:48;;;;;;;19.95;19.05;;;10.40;71.20;;;;;;5040733;28;20035;-81
2022/02/22 06:13:15;;;;;;;19.95;19.05;;;10.40;71.20;;;;;;5008272;28;20045;-81
2022/02/22 06:15:41;;;;;;;21.15;19.90;;;10.40;71.20;;;;;;5013427;28;20490;-81
2022/02/22 06:18:07;;;;;;;19.20;18.30;;;10.40;71.20;;;;;;5010810;28;20042;-81
2022/02/22 06:20:34;;;;;;;19.80;18.85;;;10.40;71.20;;;;;;5008043;28;20038;-81
2022/02/22 06:23:00;;;;;;;19.58;18.67;;;10.40;71.30;;;;;;5010899;28;20049;-81
2022/02/22 06:25:27;;;;;;;20.02;19.13;;;10.40;71.30;;;;;;5007802;28;20525;-81
2022/02/22 06:27:53;;;;;;;19.40;18.50;;;10.40;71.40;;;;;;5026839;28;20029;-81
2022/02/22 06:30:22;;;;;;;19.00;18.10;;;10.40;71.40;;;;;;5009881;28;20483;-81
2022/02/22 06:32:49;;;;;;;19.13;18.23;;;10.50;71.50;;;;;;5017790;28;20026;-81
2022/02/22 06:35:16;;;;;;;20.08;19.08;;;10.40;71.50;;;;;;5042484;28;20045;-82
2022/02/22 06:37:42;;;;;;;19.55;18.60;;;10.50;71.50;;;;;;5040973;28;20042;-82
2022/02/22 06:40:08;;;;;;;19.60;18.70;;;10.50;71.50;;;;;;5014245;28;20383;-82
2022/02/22 06:42:35;;;;;;;20.40;19.40;;;10.50;71.60;;;;;;5030606;28;20026;-81
2022/02/22 06:45:05;;;;;;;21.25;19.88;;;10.50;71.70;;;;;;4995858;28;20033;-81
2022/02/22 06:47:31;;;;;;;20.63;19.63;;;10.50;71.70;;;;;;5010449;28;20034;-82
2022/02/22 06:49:57;;;;;;;20.23;19.23;;;10.50;71.70;;;;;;5012356;28;20026;-82
2022/02/22 06:52:23;;;;;;;19.40;18.50;;;10.50;71.80;;;;;;5011841;28;20379;-82
2022/02/22 06:54:49;;;;;;;19.63;18.73;;;10.50;71.80;;;;;;5014916;28;20030;-82
2022/02/22 06:57:17;;;;;;;19.48;18.58;;;10.50;71.80;;;;;;5014000;28;20387;-82
2022/02/22 06:59:43;;;;;;;18.98;18.08;;;10.50;71.80;;;;;;4996748;28;20371;-82
2022/02/22 07:02:09;;;;;;;20.80;19.77;;;10.50;71.90;;;;;;5013253;28;20026;-82
2022/02/22 07:04:35;;;;;;;20.75;19.42;;;10.60;72.00;;;;;;5006688;28;20037;-82
2022/02/22 07:07:02;;;;;;;19.98;19.08;;;10.60;72.80;;;;;;5014065;28;20041;-82
2022/02/22 07:09:29;;;;;;;20.55;19.63;;;10.60;72.10;;;;;;5012075;28;20033;-81
2022/02/22 07:11:55;;;;;;;19.88;18.98;;;10.60;72.10;;;;;;5014159;28;20037;-81
2022/02/22 07:14:21;;;;;;;19.25;18.35;;;10.60;72.10;;;;;;5015453;28;20045;-79
2022/02/22 07:16:47;;;;;;;20.35;19.23;;;10.60;72.10;;;;;;5012534;28;20030;-89
2022/02/22 07:19:13;;;;;;;19.08;18.17;;;10.60;72.20;;;;;;5036314;28;20089;-82
2022/02/22 07:21:39;;;;;;;19.13;18.23;;;10.60;72.20;;;;;;5014000;28;20045;-87
2022/02/22 07:24:05;;;;;;;19.65;18.75;;;10.70;72.20;;;;;;5013531;28;20053;-87
2022/02/22 07:26:31;;;;;;;20.27;19.38;;;10.70;72.30;;;;;;5009316;28;20033;-84
2022/02/22 07:28:57;;;;;;;21.10;20.00;;;10.70;72.30;;;;;;5006574;28;20471;-81
2022/02/22 07:31:23;;;;;;;20.65;19.65;;;10.70;72.30;;;;;;5010597;28;20046;-80
2022/02/22 07:33:49;;;;;;;19.13;18.23;;;10.70;72.30;;;;;;5045825;28;20418;-82
2022/02/22 07:36:15;;;;;;;18.92;18.02;;;10.70;72.30;;;;;;5013963;28;20030;-83
2022/02/22 07:38:42;;;;;;;20.67;19.13;;;10.80;72.40;;;;;;4992836;28;20042;-83
2022/02/22 07:41:08;;;;;;;20.48;19.13;;;10.80;72.40;;;;;;5002156;28;20029;-82
2022/02/22 07:43:34;;;;;;;19.33;18.33;;;10.80;72.40;;;;;;5013254;28;20038;-83
2022/02/22 07:46:00;;;;;;;19.60;18.70;;;10.90;72.50;;;;;;4994886;28;22914;-82
2022/02/22 07:48:26;;;;;;;18.33;17.52;;;10.90;72.50;;;;;;5014443;28;20033;-82
2022/02/22 07:50:52;;;;;;;20.23;19.27;;;10.90;72.50;;;;;;5044096;28;20360;-80
2022/02/22 07:53:18;;;;;;;20.42;19.23;;;10.90;72.50;;;;;;4995307;28;20049;-83
2022/02/22 07:55:45;;;;;;;19.38;18.48;;;10.90;72.50;;;;;;5009469;28;20030;-82
2022/02/22 07:58:11;;;;;;;20.83;19.67;;;11.00;72.60;;;;;;5010206;28;20033;-82
2022/02/22 08:00:37;;;;;;;18.77;17.88;;;11.00;72.60;;;;;;5013008;28;20113;-83
2022/02/22 08:03:03;;;;;;;19.42;18.20;;;11.00;72.70;;;;;;5008700;28;20041;-82
2022/02/22 08:05:30;;;;;;;19.25;18.35;;;11.00;72.70;;;;;;5012899;28;20034;-82
2022/02/22 08:07:56;;;;;;;18.77;17.88;;;11.10;72.70;;;;;;5008915;28;20022;-81
2022/02/22 08:10:22;;;;;;;19.20;18.30;;;11.10;73.50;;;;;;5013017;28;20030;-78
2022/02/22 08:12:48;;;;;;;19.23;18.33;;;11.10;72.80;;;;;;5009775;28;20494;-78
2022/02/22 08:15:14;;;;;;;18.98;18.08;;;11.10;72.70;;;;;;5010444;28;20391;-77
2022/02/22 08:17:40;;;;;;;19.73;18.83;;;11.10;72.80;;;;;;5010565;28;20268;-76
2022/02/22 08:20:08;;;;;;;20.10;19.10;;;11.20;72.90;;;;;;5009338;28;20045;-78
2022/02/22 08:22:34;;;;;;;21.13;19.10;;;11.20;72.90;;;;;;5026144;28;20490;-76
2022/02/22 08:25:00;;;;;;;19.20;18.30;;;11.20;72.90;;;;;;5011836;28;20037;-80
2022/02/22 08:27:26;;;;;;;20.42;19.42;;;11.20;72.90;;;;;;5010972;28;20050;-88
2022/02/22 08:29:52;;;;;;;19.52;18.63;;;11.20;73.00;;;;;;5010272;28;20490;-81
2022/02/22 08:32:18;;;;;;;20.13;19.23;;;11.20;72.90;;;;;;5008951;28;20040;-82
2022/02/22 08:34:45;;;;;;;20.20;19.15;;;11.20;73.00;;;;;;5042876;28;20379;-82
2022/02/22 08:37:11;;;;;;;20.17;19.23;;;11.30;73.00;;;;;;5008565;28;20501;-88
2022/02/22 08:39:38;;;;;;;21.05;19.45;;;11.30;73.10;;;;;;5026669;28;20045;-80
2022/02/22 08:42:06;;;;;;;20.00;19.10;;;11.40;73.20;;;;;;4990401;28;20049;-78
2022/02/22 08:44:32;;;;;;;19.35;18.45;;;11.40;73.30;;;;;;5042866;28;20034;-78
2022/02/22 08:46:59;;;;;;;21.05;20.02;;;11.40;73.10;;;;;;5009371;28;20034;-80
2022/02/22 08:49:25;;;;;;;20.50;19.58;;;11.40;73.10;;;;;;5012387;28;20034;-80
2022/02/22 08:51:51;;;;;;;22.15;21.05;;;11.50;73.20;;;;;;5026505;28;20479;-79
2022/02/22 08:54:17;;;;;;;19.38;18.48;;;11.50;73.20;;;;;;5007856;28;20049;-77
2022/02/22 08:56:43;;;;;;;19.85;18.95;;;11.50;73.30;;;;;;5011623;28;20398;-77
2022/02/22 08:59:09;;;;;;;20.08;19.15;;;11.50;73.30;;;;;;5009428;28;20034;-80
2022/02/22 09:01:35;;;;;;;20.20;18.98;;;11.50;73.30;;;;;;5011471;28;20026;-78
2022/02/22 09:04:01;;;;;;;20.48;19.45;;;11.60;73.30;;;;;;5011658;28;20041;-82
2022/02/22 09:06:28;;;;;;;20.42;19.45;;;11.70;73.30;;;;;;4994146;28;20481;-77
2022/02/22 09:08:54;;;;;;;20.98;19.98;;;11.90;73.30;;;;;;5007063;28;20046;-77
2022/02/22 09:11:20;;;;;;;21.17;20.17;;;11.90;73.10;;;;;;5011860;28;20387;-76
2022/02/22 09:13:46;;;;;;;21.05;20.05;;;11.90;73.00;;;;;;5011649;28;20034;-77
2022/02/22 09:16:13;;;;;;;23.20;21.85;;;11.90;73.10;;;;;;5009945;28;20395;-77
2022/02/22 09:18:39;;;;;;;21.33;20.33;;;11.90;73.20;;;;;;5026834;28;20494;-77
2022/02/22 09:21:05;;;;;;;22.13;21.13;;;11.90;73.20;;;;;;5011283;28;20391;-77
2022/02/22 09:23:31;;;;;;;22.08;21.08;;;11.90;73.30;;;;;;5010584;28;20057;-83
2022/02/22 09:25:57;;;;;;;21.70;20.70;;;12.00;73.40;;;;;;5011351;28;20042;-81
2022/02/22 09:28:25;;;;;;;22.88;21.77;;;12.00;73.50;;;;;;5013217;28;20052;-87
2022/02/22 09:30:51;;;;;;;23.27;22.17;;;11.90;73.40;;;;;;5010308;28;20045;-91
2022/02/22 09:33:17;;;;;;;21.90;20.90;;;12.00;73.50;;;;;;5017260;28;20490;-85
2022/02/22 09:35:44;;;;;;;23.33;21.85;;;11.90;73.50;;;;;;5011807;28;20037;-84
2022/02/22 09:38:10;;;;;;;22.42;21.23;;;12.00;73.60;;;;;;4997565;28;20037;-86
2022/02/22 09:40:36;;;;;;;21.65;20.65;;;12.00;73.60;;;;;;5018125;28;20030;-84
2022/02/22 09:43:02;;;;;;;22.27;21.13;;;12.00;73.60;;;;;;5022844;28;20498;-83
2022/02/22 09:45:28;;;;;;;22.80;21.73;;;12.00;73.70;;;;;;5012226;28;20048;-82
2022/02/22 09:47:57;;;;;;;21.38;20.38;;;12.00;73.70;;;;;;5011900;28;20045;-84
2022/02/22 09:50:23;;;;;;;22.55;20.85;;;12.00;73.70;;;;;;5040027;28;20033;-84
2022/02/22 09:52:49;;;;;;;22.65;21.55;;;12.00;73.80;;;;;;5008542;28;20057;-88
2022/02/22 09:55:16;;;;;;;21.83;20.80;;;12.00;73.80;;;;;;5009405;28;20037;-83
2022/02/22 09:57:42;;;;;;;22.15;21.13;;;12.10;73.90;;;;;;5015270;28;20486;-89
2022/02/22 10:00:31;;;;;;;22.38;21.27;;;12.10;73.80;;;;;;5009701;28;20037;-88
2022/02/22 10:02:58;;;;;;;22.52;21.33;;;12.20;73.90;;;;;;5004840;28;20034;-87
2022/02/22 10:05:25;;;;;;;21.55;20.55;;;12.20;73.90;;;;;;5009309;28;20049;-87
2022/02/22 10:07:55;;;;;;;21.65;20.60;;;12.20;73.90;;;;;;5022646;28;20042;-87
2022/02/22 10:10:33;;;;;;;22.17;21.17;;;12.20;73.90;;;;;;5012535;28;20395;-84
2022/02/22 10:12:59;;;;;;;22.35;21.35;;;12.20;73.90;;;;;;5013246;28;20044;-84
2022/02/22 10:15:25;;;;;;;22.67;21.60;;;12.30;73.90;;;;;;4998595;28;20045;-81
2022/02/22 10:17:51;;;;;;;22.15;21.15;;;12.30;73.90;;;;;;5012578;28;20045;-81
2022/02/22 10:20:18;;;;;;;23.00;21.90;;;12.40;73.90;;;;;;5026962;28;20072;-86
2022/02/22 10:22:48;;;;;;;23.48;22.38;;;12.40;73.90;;;;;;5010723;28;20505;-85
2022/02/22 10:25:14;;;;;;;23.23;22.13;;;12.40;73.90;;;;;;5012525;28;20038;-85
2022/02/22 10:27:50;;;;;;;23.17;22.08;;;12.50;74.00;;;;;;5016931;28;20029;-87
2022/02/22 10:30:38;;;;;;;23.13;22.02;;;12.50;74.00;;;;;;5015399;28;20029;-84
2022/02/22 10:33:12;;;;;;;23.23;22.13;;;12.40;74.00;;;;;;5017766;28;20041;-85
2022/02/22 10:35:38;;;;;;;24.85;23.33;;;12.50;74.00;;;;;;5018219;28;20021;-85
2022/02/22 10:38:15;;;;;;;24.23;23.13;;;12.50;74.00;;;;;;5019227;28;20034;-83
2022/02/22 10:40:42;;;;;;;22.92;21.83;;;12.50;74.10;;;;;;5009966;28;20040;-84
2022/02/22 10:43:18;;;;;;;22.35;21.35;;;12.60;74.20;;;;;;5027176;28;20033;-84
2022/02/22 10:45:52;;;;;;;22.25;21.25;;;12.50;74.00;;;;;;4998328;28;20410;-88
2022/02/22 10:48:37;;;;;;;22.27;21.27;;;12.60;74.20;;;;;;5012356;28;20364;-85
2022/02/22 10:51:14;;;;;;;23.08;21.98;;;12.60;74.10;;;;;;5006022;28;20042;-80
2022/02/22 10:53:44;;;;;;;24.95;23.75;;;12.60;74.10;;;;;;5011912;28;20026;-82
2022/02/22 10:56:15;;;;;;;23.13;22.02;;;12.60;74.10;;;;;;4997553;28;20395;-86
2022/02/22 10:58:43;;;;;;;;;;;12.60;74.10;;;;;;5017266;28;20573;-82
2022/02/22 11:01:10;;;;;;;24.52;23.23;;;12.70;74.10;;;;;;5013094;28;19913;-85
2022/02/22 11:03:37;;;;;;;23.95;22.85;;;12.70;74.10;;;;;;5028668;28;20029;-86
2022/02/22 11:06:03;;;;;;;23.45;22.33;;;12.70;74.00;;;;;;5043608;28;20382;-88
2022/02/22 11:08:31;;;;;;;23.60;22.50;;;12.70;74.00;;;;;;4992464;28;20045;-89
2022/02/22 11:11:06;;;;;;;24.27;22.98;;;12.80;74.20;;;;;;5017432;28;20037;-89
2022/02/22 11:13:33;;;;;;;23.30;22.20;;;12.80;74.20;;;;;;5011494;28;20474;-86
2022/02/22 11:16:13;;;;;;;22.60;21.58;;;12.80;74.10;;;;;;5032082;28;20061;-85
2022/02/22 11:18:49;;;;;;;23.20;22.10;;;12.80;74.10;;;;;;4999784;28;20072;-87
2022/02/22 11:21:16;;;;;;;22.98;21.88;;;12.90;74.10;;;;;;5013258;28;20383;-86
2022/02/22 11:23:42;;;;;;;23.38;22.27;;;12.90;74.10;;;;;;5013700;28;20606;-87
2022/02/22 11:26:13;;;;;;;24.13;23.02;;;12.90;74.10;;;;;;5012194;28;20030;-89
2022/02/22 11:28:45;;;;;;;23.13;22.02;;;13.00;74.20;;;;;;5008929;28;20041;-89
2022/02/22 11:31:13;;;;;;;23.15;21.85;;;12.90;74.20;;;;;;4999988;28;20030;-87
2022/02/22 11:33:43;;;;;;;22.65;21.63;;;12.90;74.10;;;;;;5016256;28;20483;-88
2022/02/22 11:36:09;;;;;;;22.83;21.73;;;13.00;74.30;;;;;;5019289;28;20028;-88
2022/02/22 11:38:46;;;;;;;22.25;21.25;;;13.00;74.30;;;;;;5003514;28;20418;-88
2022/02/22 11:41:24;;;;;;;23.42;22.27;;;13.00;74.40;;;;;;4998348;28;20506;-89
2022/02/22 11:43:59;;;;;;;22.40;21.40;;;13.00;74.40;;;;;;5015139;28;20034;-84
2022/02/22 11:46:40;;;;;;;23.05;21.92;;;13.00;74.40;;;;;;5001434;28;20042;-84
2022/02/22 11:49:11;;;;;;;22.58;21.58;;;13.10;74.40;;;;;;5014420;28;20037;-87
2022/02/22 11:51:47;;;;;;;23.35;22.25;;;13.10;74.30;;;;;;5026492;28;20034;-86
2022/02/22 11:54:24;;;;;;;22.67;21.65;;;13.20;74.30;;;;;;5013104;28;21218;-88
2022/02/22 11:57:23;;;;;;;22.25;21.25;;;13.20;74.20;;;;;;4977879;28;20042;-81
2022/02/22 11:59:59;;;;;;;23.13;22.02;;;13.30;74.30;;;;;;4988102;28;20507;-88
2022/02/22 12:02:34;;;;;;;22.40;21.40;;;13.30;74.20;;;;;;4969508;28;20396;-83
2022/02/22 12:05:00;;;;;;;24.60;23.30;;;13.40;74.30;;;;;;4975325;28;20447;-84
2022/02/22 12:07:28;;;;;;;23.77;22.67;;;13.40;74.20;;;;;;4985051;28;20038;-84
2022/02/22 12:09:55;;;;;;;22.15;21.15;;;13.40;74.20;;;;;;4976002;28;20050;-83
2022/02/22 12:12:23;;;;;;;24.45;22.80;;;13.40;74.20;;;;;;4986944;28;20377;-83
2022/02/22 12:14:54;;;;;;;24.05;22.65;;;13.40;74.30;;;;;;4987522;28;20046;-83
2022/02/22 12:17:20;;;;;;;23.42;22.33;;;13.40;74.30;;;;;;4969823;28;20395;-83
2022/02/22 12:19:49;;;;;;;24.30;23.02;;;13.40;74.40;;;;;;4982862;28;20050;-83
2022/02/22 12:22:18;;;;;;;23.42;22.13;;;13.40;74.50;;;;;;4970994;28;20050;-84
2022/02/22 12:24:45;;;;;;;23.92;22.83;;;13.40;74.40;;;;;;4956331;28;20053;-84
2022/02/22 12:27:12;;;;;;;23.60;22.50;;;13.40;74.50;;;;;;4976183;28;20026;-84
2022/02/22 12:29:38;;;;;;;24.35;23.10;;;13.40;74.60;;;;;;4971714;28;20050;-84